createdAt,value
2019-05-03T00:01:52.732Z,12.85
2019-05-03T00:04:22.388Z,12.93
2019-05-03T00:06:52.111Z,15.90
2019-05-03T00:09:22.516Z,13.35
2019-05-03T00:11:52.883Z,13.15
2019-05-03T00:14:21.794Z,9.13
2019-05-03T00:16:52.211Z,14.00
2019-05-03T00:19:21.959Z,15.53
2019-05-03T00:21:52.473Z,12.78
2019-05-03T00:24:22.475Z,13.75
2019-05-03T00:26:51.652Z,9.45
2019-05-03T00:29:21.848Z,9.20
2019-05-03T00:31:51.673Z,12.37
2019-05-03T00:34:41.833Z,13.83
2019-05-03T00:37:12.617Z,12.00
2019-05-03T00:39:47.959Z,13.38
2019-05-03T00:42:16.253Z,18.73
2019-05-03T00:44:44.531Z,11.83
2019-05-03T00:47:12.830Z,12.43
2019-05-03T00:49:42.604Z,17.27
2019-05-03T00:52:11.677Z,12.93
2019-05-03T00:54:42.227Z,12.03
2019-05-03T00:57:11.985Z,15.60
2019-05-03T00:59:41.943Z,14.83
2019-05-03T01:02:11.867Z,14.85
2019-05-03T01:04:40.291Z,14.30
2019-05-03T01:07:08.590Z,10.65
2019-05-03T01:09:36.891Z,8.43
2019-05-03T01:12:05.186Z,12.78
2019-05-03T01:14:34.739Z,8.95
2019-05-03T01:17:03.035Z,14.53
2019-05-03T01:19:32.979Z,11.43
2019-05-03T01:22:01.962Z,13.55
2019-05-03T01:24:32.105Z,11.15
2019-05-03T01:27:01.989Z,10.53
2019-05-03T01:29:32.225Z,9.88
2019-05-03T01:32:02.328Z,11.38
2019-05-03T01:34:32.439Z,14.78
2019-05-03T01:37:02.424Z,9.85
2019-05-03T01:39:31.610Z,12.00
2019-05-03T01:41:59.993Z,11.43
2019-05-03T01:44:28.276Z,10.23
2019-05-03T01:46:58.221Z,10.08
2019-05-03T01:49:28.139Z,10.88
2019-05-03T01:52:10.006Z,11.08
2019-05-03T01:54:38.275Z,8.75
2019-05-03T01:57:06.647Z,11.45
2019-05-03T01:59:34.925Z,11.75
2019-05-03T02:02:07.605Z,11.53
2019-05-03T02:04:37.625Z,11.15
2019-05-03T02:07:05.902Z,13.38
2019-05-03T02:09:34.201Z,12.47
2019-05-03T02:12:02.471Z,8.15
2019-05-03T02:14:31.725Z,10.63
2019-05-03T02:17:01.804Z,12.18
2019-05-03T02:19:30.205Z,16.37
2019-05-03T02:21:58.486Z,10.60
2019-05-03T02:24:26.779Z,13.62
2019-05-03T02:26:55.059Z,9.30
2019-05-03T02:29:23.353Z,12.20
2019-05-03T02:31:53.477Z,12.18
2019-05-03T02:34:23.895Z,8.93
2019-05-03T02:36:53.758Z,12.05
2019-05-03T02:39:22.857Z,12.43
2019-05-03T02:41:58.050Z,10.63
2019-05-03T02:44:22.418Z,12.70
2019-05-03T02:46:52.335Z,9.98
2019-05-03T02:49:25.743Z,14.25
2019-05-03T02:51:55.448Z,11.08
2019-05-03T02:54:27.020Z,11.75
2019-05-03T02:56:55.945Z,15.20
2019-05-03T02:59:26.381Z,14.53
2019-05-03T03:01:55.804Z,13.08
2019-05-03T03:04:25.983Z,9.05
2019-05-03T03:06:55.605Z,11.22
2019-05-03T03:09:25.894Z,15.08
2019-05-03T03:11:57.170Z,16.00
2019-05-03T03:14:25.863Z,11.83
2019-05-03T03:16:56.155Z,14.33
2019-05-03T03:19:27.275Z,10.00
2019-05-03T03:21:57.642Z,11.68
2019-05-03T03:24:27.924Z,10.93
2019-05-03T03:26:58.475Z,8.38
2019-05-03T03:29:27.569Z,13.75
2019-05-03T03:32:19.076Z,11.20
2019-05-03T03:35:03.517Z,11.60
2019-05-03T03:37:30.440Z,12.80
2019-05-03T03:39:58.747Z,10.45
2019-05-03T03:42:28.739Z,10.88
2019-05-03T03:44:57.433Z,11.20
2019-05-03T03:47:27.300Z,14.53
2019-05-03T03:49:55.988Z,11.20
2019-05-03T03:52:25.680Z,10.80
2019-05-03T03:54:55.428Z,10.95
2019-05-03T03:57:25.287Z,12.47
2019-05-03T03:59:56.004Z,10.18
2019-05-03T04:02:26.214Z,10.20
2019-05-03T04:04:56.230Z,16.52
2019-05-03T04:07:26.249Z,10.45
2019-05-03T04:09:56.229Z,8.58
2019-05-03T04:12:26.576Z,14.07
2019-05-03T04:15:01.694Z,6.87
2019-05-03T04:17:37.540Z,8.88
2019-05-03T04:20:07.650Z,9.78
2019-05-03T04:22:36.428Z,11.80
2019-05-03T04:25:06.012Z,10.13
2019-05-03T04:27:36.436Z,10.63
2019-05-03T04:30:06.230Z,10.55
2019-05-03T04:32:35.983Z,12.28
2019-05-03T04:35:05.461Z,6.50
2019-05-03T04:37:35.884Z,11.90
2019-05-03T04:40:07.524Z,20.62
2019-05-03T04:42:36.008Z,12.30
2019-05-03T04:45:06.009Z,9.23
2019-05-03T04:47:35.753Z,6.30
2019-05-03T04:50:06.191Z,8.40
2019-05-03T04:52:36.106Z,7.92
2019-05-03T04:55:06.883Z,10.43
2019-05-03T04:57:42.180Z,8.83
2019-05-03T05:00:11.267Z,9.75
2019-05-03T05:02:37.376Z,9.88
2019-05-03T05:05:08.406Z,8.85
2019-05-03T05:07:36.721Z,9.43
2019-05-03T05:10:07.026Z,11.12
2019-05-03T05:12:35.623Z,8.93
2019-05-03T05:15:06.580Z,10.72
2019-05-03T05:17:52.605Z,11.45
2019-05-03T05:20:25.427Z,8.58
2019-05-03T05:25:25.142Z,13.22
2019-05-03T05:28:00.960Z,13.22
2019-05-03T05:30:29.915Z,12.03
2019-05-03T05:32:58.238Z,11.48
2019-05-03T05:35:26.511Z,12.70
2019-05-03T05:37:54.816Z,12.45
2019-05-03T05:40:24.534Z,14.78
2019-05-03T05:42:54.585Z,17.40
2019-05-03T05:45:24.598Z,16.37
2019-05-03T05:47:54.823Z,15.95
2019-05-03T05:50:25.396Z,14.95
2019-05-03T05:52:55.211Z,13.30
2019-05-03T05:55:25.376Z,13.30
2019-05-03T05:58:07.495Z,13.53
2019-05-03T06:00:36.023Z,11.28
2019-05-03T06:03:05.168Z,11.45
2019-05-03T06:05:35.423Z,13.45
2019-05-03T06:08:05.455Z,16.00
2019-05-03T06:10:45.141Z,11.45
2019-05-03T06:13:18.084Z,14.43
2019-05-03T06:18:17.242Z,12.18
2019-05-03T06:20:54.399Z,14.70
2019-05-03T06:23:24.843Z,12.88
2019-05-03T06:25:54.532Z,12.82
2019-05-03T06:28:25.224Z,10.70
2019-05-03T06:30:55.239Z,11.53
2019-05-03T06:33:24.462Z,11.97
2019-05-03T06:35:54.648Z,13.80
2019-05-03T06:38:24.433Z,12.93
2019-05-03T06:40:54.432Z,12.55
2019-05-03T06:43:24.487Z,13.08
2019-05-03T06:45:54.671Z,10.18
2019-05-03T06:48:28.177Z,14.40
2019-05-03T06:50:55.646Z,12.90
2019-05-03T06:53:25.412Z,10.88
2019-05-03T06:55:55.424Z,15.25
2019-05-03T06:58:32.845Z,9.58
2019-05-03T07:00:55.512Z,13.65
2019-05-03T07:03:28.477Z,11.15
2019-05-03T07:05:58.419Z,13.58
2019-05-03T07:08:37.552Z,15.40
2019-05-03T07:11:07.639Z,11.75
2019-05-03T07:13:36.269Z,11.45
2019-05-03T07:16:04.812Z,10.15
2019-05-03T07:18:35.997Z,10.40
2019-05-03T07:21:04.874Z,9.48
2019-05-03T07:23:34.997Z,10.10
2019-05-03T07:26:05.215Z,10.65
2019-05-03T07:28:44.494Z,11.18
2019-05-03T07:31:04.841Z,8.35
2019-05-03T07:33:34.887Z,11.95
2019-05-03T07:36:05.324Z,10.40
2019-05-03T07:38:35.021Z,8.23
2019-05-03T07:41:05.255Z,12.25
2019-05-03T07:43:33.460Z,12.50
2019-05-03T07:46:01.746Z,11.45
2019-05-03T07:48:30.036Z,12.68
2019-05-03T07:50:58.377Z,7.72
2019-05-03T07:53:26.650Z,10.20
2019-05-03T07:55:59.246Z,8.75
2019-05-03T07:58:29.293Z,10.25
2019-05-03T08:01:06.173Z,9.25
2019-05-03T08:03:29.304Z,12.37
2019-05-03T08:05:57.865Z,9.43
2019-05-03T08:08:26.163Z,9.75
2019-05-03T08:10:54.980Z,10.38
2019-05-03T08:13:25.313Z,7.78
2019-05-03T08:15:55.541Z,9.15
2019-05-03T08:18:25.570Z,8.73
2019-05-03T08:20:55.430Z,10.98
2019-05-03T08:23:29.703Z,7.10
2019-05-03T08:25:55.649Z,10.55
2019-05-03T08:28:24.562Z,8.28
2019-05-03T08:31:00.750Z,10.13
2019-05-03T08:33:46.925Z,9.95
2019-05-03T08:36:15.622Z,10.68
2019-05-03T08:38:45.217Z,8.38
2019-05-03T08:41:21.477Z,9.48
2019-05-03T08:43:49.766Z,8.70
2019-05-03T08:46:18.081Z,11.90
2019-05-03T08:48:46.363Z,6.75
2019-05-03T08:51:14.937Z,8.03
2019-05-03T08:53:45.827Z,7.45
2019-05-03T08:56:15.507Z,5.75
2019-05-03T08:58:45.140Z,9.23
2019-05-03T09:01:14.781Z,11.30
2019-05-03T09:03:43.259Z,9.88
2019-05-03T09:06:11.539Z,7.17
2019-05-03T09:08:39.837Z,10.75
2019-05-03T09:11:12.480Z,11.12
2019-05-03T09:13:42.418Z,4.97
2019-05-03T09:16:10.819Z,11.90
2019-05-03T09:18:39.094Z,9.45
2019-05-03T09:21:07.368Z,7.65
2019-05-03T09:23:35.802Z,9.98
2019-05-03T09:26:04.650Z,10.85
2019-05-03T09:28:34.853Z,11.33
2019-05-03T09:31:04.688Z,8.10
2019-05-03T09:33:33.101Z,10.88
2019-05-03T09:36:01.380Z,14.20
2019-05-03T09:38:29.668Z,8.40
2019-05-03T09:40:58.404Z,12.68
2019-05-03T09:43:26.702Z,9.65
2019-05-03T09:45:55.232Z,10.72
2019-05-03T09:48:25.461Z,11.55
2019-05-03T09:50:55.681Z,8.45
2019-05-03T09:53:26.037Z,8.43
2019-05-03T09:55:55.552Z,6.50
2019-05-03T09:58:26.196Z,6.83
2019-05-03T10:00:55.520Z,8.30
2019-05-03T10:03:23.867Z,7.65
2019-05-03T10:05:52.139Z,12.75
2019-05-03T10:08:20.686Z,7.37
2019-05-03T10:11:06.508Z,6.55
2019-05-03T10:13:35.608Z,9.03
2019-05-03T10:16:06.045Z,8.55
2019-05-03T10:18:34.992Z,9.30
2019-05-03T10:21:05.307Z,7.60
2019-05-03T10:23:35.857Z,12.30
2019-05-03T10:26:05.234Z,9.30
2019-05-03T10:28:33.588Z,6.90
2019-05-03T10:31:07.475Z,10.28
2019-05-03T10:33:39.470Z,9.63
2019-05-03T10:36:07.757Z,8.95
2019-05-03T10:38:36.060Z,6.17
2019-05-03T10:41:05.822Z,6.85
2019-05-03T10:43:35.472Z,10.10
2019-05-03T10:46:05.172Z,5.20
2019-05-03T10:48:35.549Z,6.60
2019-05-03T10:51:04.748Z,7.00
2019-05-03T10:53:37.908Z,6.08
2019-05-03T10:56:23.330Z,5.15
2019-05-03T10:58:50.509Z,8.73
2019-05-03T11:01:20.462Z,8.50
2019-05-03T11:03:48.733Z,5.65
2019-05-03T11:06:17.038Z,5.30
2019-05-03T11:08:45.319Z,7.28
2019-05-03T11:11:15.078Z,8.98
2019-05-03T11:13:43.511Z,4.50
2019-05-03T11:16:12.042Z,5.12
2019-05-03T11:18:40.322Z,5.60
2019-05-03T11:21:08.615Z,7.60
2019-05-03T11:23:36.901Z,6.75
2019-05-03T11:26:05.191Z,9.40
2019-05-03T11:28:35.256Z,5.17
2019-05-03T11:31:21.432Z,5.10
2019-05-03T11:33:49.733Z,6.92
2019-05-03T11:36:22.151Z,4.12
2019-05-03T11:38:50.429Z,4.50
2019-05-03T11:41:29.384Z,4.17
2019-05-03T11:43:48.804Z,4.50
2019-05-03T11:46:17.195Z,9.55
2019-05-03T11:48:45.608Z,6.45
2019-05-03T11:51:15.199Z,4.78
2019-05-03T11:53:45.054Z,4.67
2019-05-03T11:56:14.835Z,5.95
2019-05-03T11:58:45.528Z,6.60
2019-05-03T12:01:19.506Z,6.75
2019-05-03T12:03:46.673Z,5.78
2019-05-03T12:06:15.733Z,6.62
2019-05-03T12:08:45.624Z,6.03
2019-05-03T12:11:15.098Z,3.98
2019-05-03T12:13:45.619Z,6.25
2019-05-03T12:16:19.838Z,6.58
2019-05-03T12:18:50.237Z,11.25
2019-05-03T12:21:17.726Z,7.67
2019-05-03T12:23:45.962Z,9.40
2019-05-03T12:26:17.118Z,5.60
2019-05-03T12:28:44.966Z,6.03
2019-05-03T12:31:28.235Z,5.67
2019-05-03T12:33:45.742Z,6.12
2019-05-03T12:36:15.478Z,5.87
2019-05-03T12:38:43.403Z,4.67
2019-05-03T12:41:11.710Z,3.83
2019-05-03T12:43:40.073Z,6.78
2019-05-03T12:46:08.351Z,6.08
2019-05-03T12:48:36.640Z,8.88
2019-05-03T12:51:07.250Z,5.83
2019-05-03T12:53:35.933Z,5.53
2019-05-03T12:56:11.412Z,4.37
2019-05-03T12:58:38.871Z,5.12
2019-05-03T13:01:11.276Z,4.80
2019-05-03T13:03:41.091Z,5.65
2019-05-03T13:06:09.398Z,3.42
2019-05-03T13:08:40.284Z,4.65
2019-05-03T13:11:09.036Z,4.62
2019-05-03T13:13:37.420Z,3.02
2019-05-03T13:16:06.310Z,4.83
2019-05-03T13:18:35.318Z,5.95
2019-05-03T13:21:05.720Z,3.42
2019-05-03T13:23:35.389Z,8.25
2019-05-03T13:26:05.659Z,5.92
2019-05-03T13:28:34.133Z,4.17
2019-05-03T13:31:02.404Z,8.55
2019-05-03T13:33:30.726Z,5.03
2019-05-03T13:35:59.010Z,7.35
2019-05-03T13:38:27.298Z,7.35
2019-05-03T13:40:55.577Z,7.87
2019-05-03T13:43:23.891Z,6.97
2019-05-03T13:45:52.163Z,4.40
2019-05-03T13:48:21.176Z,4.90
2019-05-03T13:50:50.451Z,6.65
2019-05-03T13:53:18.741Z,6.95
2019-05-03T13:55:47.008Z,4.97
2019-05-03T13:58:15.300Z,4.97
2019-05-03T14:00:45.394Z,6.30
2019-05-03T14:03:15.270Z,4.78
2019-05-03T14:05:44.573Z,5.85
2019-05-03T14:08:15.408Z,6.50
2019-05-03T14:10:45.206Z,5.78
2019-05-03T14:13:13.059Z,9.93
2019-05-03T14:15:41.323Z,5.72
2019-05-03T14:18:11.264Z,5.20
2019-05-03T14:20:57.378Z,6.50
2019-05-03T14:23:25.686Z,5.90
2019-05-03T14:25:55.227Z,5.50
2019-05-03T14:28:25.269Z,3.98
2019-05-03T14:30:54.812Z,4.12
2019-05-03T14:33:24.869Z,4.45
2019-05-03T14:35:54.698Z,11.30
2019-05-03T14:38:25.311Z,6.83
2019-05-03T14:40:55.099Z,6.95
2019-05-03T14:43:24.928Z,3.62
2019-05-03T14:45:54.979Z,6.40
2019-05-03T14:48:24.803Z,7.22
2019-05-03T14:50:57.134Z,5.87
2019-05-03T14:53:25.280Z,4.50
2019-05-03T14:55:54.993Z,6.12
2019-05-03T14:58:35.278Z,4.90
2019-05-03T15:01:07.995Z,4.37
2019-05-03T15:03:36.530Z,7.60
2019-05-03T15:06:05.283Z,5.85
2019-05-03T15:08:34.988Z,4.00
2019-05-03T15:11:05.327Z,10.15
2019-05-03T15:13:34.997Z,4.72
2019-05-03T15:16:05.202Z,4.28
2019-05-03T15:18:34.866Z,6.30
2019-05-03T15:21:05.346Z,4.55
2019-05-03T15:23:34.717Z,4.87
2019-05-03T15:26:05.049Z,6.53
2019-05-03T15:28:35.409Z,5.17
2019-05-03T15:31:04.559Z,6.58
2019-05-03T15:33:35.191Z,7.45
2019-05-03T15:36:04.772Z,6.58
2019-05-03T15:38:34.609Z,6.05
2019-05-03T15:41:05.385Z,5.30
2019-05-03T15:43:40.812Z,5.58
2019-05-03T15:46:14.690Z,7.28
2019-05-03T15:48:47.405Z,7.25
2019-05-03T15:51:16.012Z,5.95
2019-05-03T15:53:44.465Z,3.90
2019-05-03T15:56:14.503Z,6.08
2019-05-03T15:58:46.418Z,5.50
2019-05-03T16:01:15.167Z,5.28
2019-05-03T16:03:44.878Z,5.25
2019-05-03T16:06:15.314Z,5.90
2019-05-03T16:08:44.634Z,7.15
2019-05-03T16:11:14.851Z,6.75
2019-05-03T16:13:44.870Z,5.85
2019-05-03T16:16:15.176Z,6.53
2019-05-03T16:18:44.807Z,5.55
2019-05-03T16:21:14.602Z,5.58
2019-05-03T16:23:46.260Z,6.08
2019-05-03T16:26:14.356Z,5.72
2019-05-03T16:28:50.513Z,5.00
2019-05-03T16:31:24.895Z,5.05
2019-05-03T16:33:55.012Z,10.25
2019-05-03T16:36:23.336Z,5.83
2019-05-03T16:38:51.606Z,6.97
2019-05-03T16:41:19.913Z,8.58
2019-05-03T16:43:48.181Z,9.38
2019-05-03T16:46:16.457Z,5.08
2019-05-03T16:48:44.998Z,5.72
2019-05-03T16:51:16.852Z,7.30
2019-05-03T16:53:44.492Z,6.65
2019-05-03T16:56:16.764Z,6.22
2019-05-03T16:58:44.704Z,8.65
2019-05-03T17:01:15.948Z,9.13
2019-05-03T17:03:45.660Z,5.05
2019-05-03T17:06:31.742Z,6.58
2019-05-03T17:09:14.505Z,6.47
2019-05-03T17:11:42.849Z,8.68
2019-05-03T17:14:11.165Z,3.67
2019-05-03T17:16:39.457Z,6.15
2019-05-03T17:19:07.752Z,5.17
2019-05-03T17:21:36.030Z,4.37
2019-05-03T17:24:06.212Z,10.10
2019-05-03T17:26:35.147Z,4.85
2019-05-03T17:29:04.672Z,5.60
2019-05-03T17:31:35.033Z,4.10
2019-05-03T17:34:02.935Z,7.90
2019-05-03T17:36:31.208Z,4.97
2019-05-03T17:39:01.147Z,6.55
2019-05-03T17:41:31.062Z,5.45
2019-05-03T17:44:00.996Z,5.50
2019-05-03T17:46:29.274Z,7.35
2019-05-03T17:48:57.591Z,7.35
2019-05-03T17:51:46.519Z,7.17
2019-05-03T17:54:28.699Z,7.45
2019-05-03T17:56:58.616Z,6.20
2019-05-03T17:59:28.537Z,7.35
2019-05-03T18:02:15.356Z,6.40
2019-05-03T18:04:57.103Z,8.25
2019-05-03T18:07:38.890Z,5.08
2019-05-03T18:10:08.022Z,7.75
2019-05-03T18:12:36.291Z,8.98
2019-05-03T18:15:06.628Z,6.65
2019-05-03T18:17:35.226Z,6.87
2019-05-03T18:20:05.018Z,4.50
2019-05-03T18:22:33.291Z,5.42
2019-05-03T18:25:01.632Z,8.15
2019-05-03T18:27:29.902Z,5.53
2019-05-03T18:29:58.203Z,6.17
2019-05-03T18:32:26.480Z,8.05
2019-05-03T18:34:55.063Z,8.48
2019-05-03T18:37:24.510Z,3.98
2019-05-03T18:39:54.715Z,5.65
2019-05-03T18:42:24.715Z,6.78
2019-05-03T18:44:57.496Z,5.20
2019-05-03T18:47:27.142Z,5.75
2019-05-03T18:49:55.433Z,8.40
2019-05-03T18:52:23.696Z,5.65
2019-05-03T18:54:52.260Z,8.75
2019-05-03T18:57:20.532Z,8.78
2019-05-03T18:59:48.827Z,10.35
2019-05-03T19:02:17.107Z,9.23
2019-05-03T19:04:49.692Z,6.15
2019-05-03T19:07:26.108Z,7.70
2019-05-03T19:10:05.073Z,9.98
2019-05-03T19:12:40.717Z,9.45
2019-05-03T19:15:09.989Z,9.53
2019-05-03T19:17:42.615Z,7.60
2019-05-03T19:20:15.287Z,5.53
2019-05-03T19:22:43.616Z,7.22
2019-05-03T19:25:11.978Z,9.85
2019-05-03T19:27:40.247Z,6.80
2019-05-03T19:30:08.786Z,6.90
2019-05-03T19:32:37.056Z,5.28
2019-05-03T19:35:08.721Z,10.20
2019-05-03T19:37:37.372Z,6.97
2019-05-03T19:40:06.669Z,8.08
2019-05-03T19:42:35.394Z,7.95
2019-05-03T19:45:03.754Z,7.05
2019-05-03T19:47:32.030Z,9.85
2019-05-03T19:50:00.308Z,6.22
2019-05-03T19:52:30.233Z,9.30
2019-05-03T19:54:58.498Z,6.17
2019-05-03T19:57:28.430Z,9.03
2019-05-03T19:59:57.080Z,9.20
2019-05-03T20:02:45.469Z,6.03
2019-05-03T20:05:31.454Z,8.28
2019-05-03T20:08:06.891Z,6.62
2019-05-03T20:10:35.320Z,12.80
2019-05-03T20:13:04.604Z,8.35
2019-05-03T20:15:33.036Z,7.67
2019-05-03T20:18:01.308Z,6.35
2019-05-03T20:20:29.579Z,10.13
2019-05-03T20:22:59.062Z,6.70
2019-05-03T20:25:27.425Z,10.08
2019-05-03T20:27:55.986Z,6.45
2019-05-03T20:30:25.477Z,6.83
2019-05-03T20:32:55.550Z,8.23
2019-05-03T20:35:25.162Z,8.45
2019-05-03T20:37:55.334Z,6.33
2019-05-03T20:40:25.561Z,8.23
2019-05-03T20:43:07.178Z,7.75
2019-05-03T20:45:37.095Z,6.28
2019-05-03T20:48:09.826Z,7.08
2019-05-03T20:50:38.122Z,6.42
2019-05-03T20:53:06.410Z,7.78
2019-05-03T20:55:34.877Z,7.92
2019-05-03T20:58:03.160Z,7.87
2019-05-03T21:00:31.433Z,11.68
2019-05-03T21:02:59.731Z,9.08
2019-05-03T21:05:32.051Z,9.20
2019-05-03T21:07:58.004Z,7.97
2019-05-03T21:10:26.273Z,6.70
2019-05-03T21:12:54.585Z,7.20
2019-05-03T21:15:44.407Z,5.17
2019-05-03T21:18:28.987Z,9.35
2019-05-03T21:21:07.600Z,5.12
2019-05-03T21:23:37.537Z,6.95
2019-05-03T21:26:13.267Z,8.00
2019-05-03T21:28:39.807Z,6.87
2019-05-03T21:31:08.083Z,7.60
2019-05-03T21:33:36.375Z,7.05
2019-05-03T21:36:04.840Z,12.53
2019-05-03T21:38:35.197Z,7.40
2019-05-03T21:41:05.107Z,6.08
2019-05-03T21:43:34.868Z,8.53
2019-05-03T21:46:07.565Z,7.10
2019-05-03T21:48:37.500Z,6.58
2019-05-03T21:51:05.768Z,8.53
2019-05-03T21:53:34.468Z,5.62
2019-05-03T21:56:02.846Z,7.80
2019-05-03T21:58:31.174Z,7.92
2019-05-03T22:01:01.048Z,10.58
2019-05-03T22:03:29.339Z,7.12
2019-05-03T22:05:58.129Z,9.18
2019-05-03T22:08:26.581Z,7.97
2019-05-03T22:10:55.407Z,5.70
2019-05-03T22:13:24.588Z,8.25
2019-05-03T22:15:54.626Z,6.45
2019-05-03T22:18:24.875Z,11.80
2019-05-03T22:21:06.886Z,10.88
2019-05-03T22:23:52.886Z,8.83
2019-05-03T22:26:24.720Z,10.35
2019-05-03T22:28:54.710Z,5.83
2019-05-03T22:31:24.204Z,6.70
2019-05-03T22:33:55.076Z,6.78
2019-05-03T22:36:24.561Z,6.37
2019-05-03T22:38:54.450Z,8.88
2019-05-03T22:41:22.801Z,8.53
2019-05-03T22:43:51.085Z,9.93
2019-05-03T22:46:19.356Z,7.00
2019-05-03T22:48:47.652Z,7.45
2019-05-03T22:51:15.928Z,11.12
2019-05-03T22:53:44.863Z,10.95
2019-05-03T22:56:14.450Z,6.67
2019-05-03T22:58:42.932Z,7.33
2019-05-03T23:01:11.222Z,8.15
2019-05-03T23:03:45.375Z,5.72
2019-05-03T23:06:22.033Z,5.60
2019-05-03T23:08:44.323Z,8.85
2019-05-03T23:11:12.608Z,4.60
2019-05-03T23:13:40.900Z,7.10
2019-05-03T23:16:09.183Z,8.43
2019-05-03T23:18:37.452Z,8.18
2019-05-03T23:21:15.106Z,3.87
2019-05-03T23:23:54.861Z,4.97
2019-05-03T23:26:25.279Z,4.62
2019-05-03T23:28:55.103Z,5.28
2019-05-03T23:31:25.145Z,5.55
2019-05-03T23:33:54.457Z,3.95
2019-05-03T23:36:32.847Z,8.63
2019-05-03T23:38:54.619Z,7.53
2019-05-03T23:41:24.586Z,5.10
2019-05-03T23:43:52.967Z,6.97
2019-05-03T23:46:22.913Z,10.13
2019-05-03T23:48:51.191Z,5.12
2019-05-03T23:51:37.343Z,6.12
2019-05-03T23:54:06.183Z,8.08
2019-05-03T23:56:35.084Z,5.25
2019-05-03T23:59:05.374Z,6.83
